Observation data for Fluvanna on 01/19/2019      Previous  Date  Next       Current Mesonet Observations  Soil Data  Daily Summary Page  Observations in Plain Language
KFVS 190600Z 34023G31KT 04/M03 A30 RMK A01 T00401027  RH  062%=      5-min Rain = 0
KFVS 190605Z 33024G37KT 04/M03 A3001 RMK A01 T00391027  RH  062%=      5-min Rain = 0
KFVS 190610Z 34029G35KT 04/M03 A3001 RMK A01 T00351028  RH  064%=      5-min Rain = 0
KFVS 190615Z 34028G37KT 03/M03 A3001 RMK A01 T00321028  RH  065%=      5-min Rain = 0
KFVS 190620Z 34030G38KT 03/M03 A3002 RMK A01 T00291025  RH  068%=      5-min Rain = 0
KFVS 190625Z 34025G32KT 03/M02 A3003 RMK A01 T00261022  RH  072%=      5-min Rain = 0
KFVS 190630Z 34022G31KT 02/M02 A3003 RMK A01 T00241019  RH  074%=      5-min Rain = 0
KFVS 190635Z 34026G34KT 02/M02 A3003 RMK A01 T00221018  RH  076%=      5-min Rain = 0
KFVS 190640Z 34030G38KT 02/M01 A3004 RMK A01 T00161014  RH  081%=      5-min Rain = 0
KFVS 190645Z 34025G33KT 01/M01 A3004 RMK A01 T00141011  RH  084%=      5-min Rain = 0
KFVS 190650Z 34028G37KT 01/M01 A3004 RMK A01 T00111010  RH  087%=      5-min Rain = 0
KFVS 190655Z 34026G35KT 01/M01 A3005 RMK A01 T00091008  RH  089%=      5-min Rain = 0
KFVS 190700Z 34026G33KT 01/M01 A3005 RMK A01 T00051008  RH  092%=      5-min Rain = 0
KFVS 190705Z 34023G30KT 01/M01 A3005 RMK A01 T00051007  RH  093%=      5-min Rain = 0
KFVS 190710Z 34024G30KT 01/M01 A3005 RMK A01 T00051007  RH  093%=      5-min Rain = 0
KFVS 190715Z 34022G28KT 01/M01 A3005 RMK A01 T00081007  RH  090%=      5-min Rain = 0
KFVS 190720Z 34021G27KT 01/M01 A3005 RMK A01 T00101007  RH  089%=      5-min Rain = 0
KFVS 190725Z 34022G29KT 01/M01 A3005 RMK A01 T00121008  RH  087%=      5-min Rain = 0
KFVS 190730Z 34025G30KT 01/M01 A3005 RMK A01 T00131009  RH  086%=      5-min Rain = 0
KFVS 190735Z 35026G33KT 01/M01 A3005 RMK A01 T00121011  RH  085%=      5-min Rain = 0
KFVS 190740Z 34023G30KT 01/M01 A3006 RMK A01 T00111011  RH  086%=      5-min Rain = 0
KFVS 190745Z 34024G30KT 01/M01 A3006 RMK A01 T00121012  RH  085%=      5-min Rain = 0
KFVS 190750Z 34025G33KT 01/M01 A3006 RMK A01 T00131014  RH  083%=      5-min Rain = 0
KFVS 190755Z 34026G33KT 01/M02 A3006 RMK A01 T00131015  RH  083%=      5-min Rain = 0
KFVS 190800Z 34024G29KT 01/M02 A3006 RMK A01 T00141016  RH  081%=      5-min Rain = 0
KFVS 190805Z 34022KT 01/M02 A3007 RMK A01 T00141016  RH  082%=      5-min Rain = 0
KFVS 190810Z 34022G27KT 01/M02 A3007 RMK A01 T00141015  RH  082%=      5-min Rain = 0
KFVS 190815Z 34018G24KT 01/M02 A3008 RMK A01 T00141015  RH  082%=      5-min Rain = 0
KFVS 190820Z 34017G22KT 02/M01 A3008 RMK A01 T00151014  RH  082%=      5-min Rain = 0
KFVS 190825Z 34018KT 02/M01 A3008 RMK A01 T00161014  RH  082%=      5-min Rain = 0
KFVS 190830Z 34015KT 02/M01 A3009 RMK A01 T00161013  RH  082%=      5-min Rain = 0
KFVS 190835Z 33017G24KT 02/M01 A3009 RMK A01 T00161013  RH  082%=      5-min Rain = 0
KFVS 190840Z 33016G24KT 02/M01 A3009 RMK A01 T00171014  RH  081%=      5-min Rain = 0
KFVS 190845Z 33016G21KT 02/M01 A3009 RMK A01 T00171013  RH  081%=      5-min Rain = 0
KFVS 190850Z 33014G19KT 02/M01 A3009 RMK A01 T00171013  RH  081%=      5-min Rain = 0
KFVS 190855Z 33015G21KT 02/M01 A3009 RMK A01 T00181013  RH  081%=      5-min Rain = 0
KFVS 190900Z 33015KT 02/M01 A3009 RMK A01 T00191014  RH  080%=      5-min Rain = 0
KFVS 190905Z 33016G24KT 02/M02 A3009 RMK A01 T00181016  RH  079%=      5-min Rain = 0
KFVS 190910Z 34018G29KT 02/M02 A301 RMK A01 T00191019  RH  077%=      5-min Rain = 0
KFVS 190915Z 34021G29KT 02/M02 A301 RMK A01 T00201023  RH  074%=      5-min Rain = 0
KFVS 190920Z 34019G25KT 02/M02 A301 RMK A01 T00191023  RH  074%=      5-min Rain = 0
KFVS 190925Z 33020G25KT 02/M02 A301 RMK A01 T00181023  RH  074%=      5-min Rain = 0
KFVS 190930Z 33022G29KT 02/M02 A301 RMK A01 T00181023  RH  074%=      5-min Rain = 0
KFVS 190935Z 33020G25KT 02/M02 A3011 RMK A01 T00171024  RH  075%=      5-min Rain = 0
KFVS 190940Z 33023G30KT 02/M03 A3011 RMK A01 T00161026  RH  074%=      5-min Rain = 0
KFVS 190945Z 34022G30KT 02/M03 A3011 RMK A01 T00151027  RH  074%=      5-min Rain = 0
KFVS 190950Z 34024G30KT 02/M03 A3011 RMK A01 T00151028  RH  073%=      5-min Rain = 0
KFVS 190955Z 34023G29KT 02/M03 A3011 RMK A01 T00151029  RH  073%=      5-min Rain = 0
KFVS 191000Z 34023G29KT 01/M03 A3011 RMK A01 T00141030  RH  073%=      5-min Rain = 0
KFVS 191005Z 34020G27KT 01/M03 A3012 RMK A01 T00131030  RH  073%=      5-min Rain = 0
KFVS 191010Z 34020G28KT 01/M03 A3012 RMK A01 T00121031  RH  074%=      5-min Rain = 0
KFVS 191015Z 34019G26KT 01/M03 A3013 RMK A01 T00111032  RH  074%=      5-min Rain = 0
KFVS 191020Z 33020G26KT 01/M03 A3013 RMK A01 T00101034  RH  073%=      5-min Rain = 0
KFVS 191025Z 33021G28KT 01/M04 A3013 RMK A01 T00091035  RH  073%=      5-min Rain = 0
KFVS 191030Z 34022G27KT 01/M04 A3013 RMK A01 T00091036  RH  072%=      5-min Rain = 0
KFVS 191035Z 34022G28KT 01/M04 A3013 RMK A01 T00091037  RH  072%=      5-min Rain = 0
KFVS 191040Z 34022G30KT 01/M04 A3014 RMK A01 T00081038  RH  072%=      5-min Rain = 0
KFVS 191045Z 34023G29KT 01/M04 A3014 RMK A01 T00081040  RH  071%=      5-min Rain = 0
KFVS 191050Z 34019G26KT 01/M04 A3014 RMK A01 T00071040  RH  071%=      5-min Rain = 0
KFVS 191055Z 34021G30KT 01/M04 A3014 RMK A01 T00071039  RH  072%=      5-min Rain = 0
KFVS 191100Z 34019G25KT 01/M04 A3015 RMK A01 T00071039  RH  072%=      5-min Rain = 0
KFVS 191105Z 34019G25KT 01/M04 A3015 RMK A01 T00051039  RH  073%=      5-min Rain = 0
KFVS 191110Z 34021G28KT 01/M04 A3016 RMK A01 T00051040  RH  072%=      5-min Rain = 0
KFVS 191115Z 34023G28KT 01/M04 A3016 RMK A01 T00061039  RH  072%=      5-min Rain = 0
KFVS 191120Z 34021G26KT 01/M04 A3016 RMK A01 T00051039  RH  073%=      5-min Rain = 0
KFVS 191125Z 34020G25KT 01/M04 A3016 RMK A01 T00051039  RH  073%=      5-min Rain = 0
KFVS 191130Z 34021G28KT 00/M04 A3016 RMK A01 T00031039  RH  074%=      5-min Rain = 0
KFVS 191135Z 34025G32KT 00/M04 A3016 RMK A01 T00041040  RH  073%=      5-min Rain = 0
KFVS 191140Z 34024G30KT 00/M04 A3016 RMK A01 T00031041  RH  073%=      5-min Rain = 0
KFVS 191145Z 34024G31KT 00/M04 A3016 RMK A01 T00011041  RH  073%=      5-min Rain = 0
KFVS 191150Z 34024G31KT 00/M04 A3016 RMK A01 T00011043  RH  073%=      5-min Rain = 0
KFVS 191155Z 34026G32KT 00/M04 A3017 RMK A01 T00011043  RH  072%=      5-min Rain = 0
KFVS 191200Z 34026G32KT 00/M04 A3017 RMK A01 T00011044  RH  072%=      5-min Rain = 0
KFVS 191205Z 35026G33KT 00/M04 A3017 RMK A01 T00011044  RH  072%=      5-min Rain = 0
KFVS 191210Z 35025G31KT 00/04 A3017 RMK A01 T00000-44  RH  073%=      5-min Rain = 0
KFVS 191215Z 35022G30KT M00/M04 A3017 RMK A01 T10011043  RH  074%=      5-min Rain = 0
KFVS 191220Z 35023G28KT M00/M04 A3018 RMK A01 T10011043  RH  074%=      5-min Rain = 0
KFVS 191225Z 35021G26KT M00/M04 A3017 RMK A01 T10021043  RH  074%=      5-min Rain = 0
KFVS 191230Z 35023G28KT M00/M04 A3017 RMK A01 T10021043  RH  074%=      5-min Rain = 0
KFVS 191235Z 35021G26KT M00/M04 A3018 RMK A01 T10021043  RH  074%=      5-min Rain = 0
KFVS 191240Z 35021G28KT M00/M04 A3018 RMK A01 T10031044  RH  074%=      5-min Rain = 0
KFVS 191245Z 35022G28KT M00/M04 A3018 RMK A01 T10031044  RH  074%=      5-min Rain = 0
KFVS 191250Z 35022KT M00/M04 A3019 RMK A01 T10021044  RH  074%=      5-min Rain = 0
KFVS 191255Z 35021G27KT M00/M05 A3019 RMK A01 T10031045  RH  074%=      5-min Rain = 0
KFVS 191300Z 35020G25KT M00/M05 A3019 RMK A01 T10031045  RH  073%=      5-min Rain = 0
KFVS 191305Z 35020G27KT M00/M05 A302 RMK A01 T10041045  RH  074%=      5-min Rain = 0
KFVS 191310Z 35020G25KT M00/M05 A302 RMK A01 T10031045  RH  074%=      5-min Rain = 0
KFVS 191315Z 35020G26KT M00/M05 A3021 RMK A01 T10041045  RH  074%=      5-min Rain = 0
KFVS 191320Z 35019KT M00/M05 A3021 RMK A01 T10031045  RH  074%=      5-min Rain = 0
KFVS 191325Z 35018G23KT M00/M04 A3021 RMK A01 T10031044  RH  074%=      5-min Rain = 0
KFVS 191330Z 35018G23KT M00/M04 A3021 RMK A01 T10031044  RH  074%=      5-min Rain = 0
KFVS 191335Z 35018KT M00/M04 A3021 RMK A01 T10021044  RH  074%=      5-min Rain = 0
KFVS 191340Z 35018G23KT M00/M04 A3022 RMK A01 T10021043  RH  074%=      5-min Rain = 0
KFVS 191345Z 35021G27KT 00/04 A3022 RMK A01 T00-00-43  RH  073%=      5-min Rain = 0
KFVS 191350Z 35022G27KT 00/M04 A3022 RMK A01 T00011043  RH  073%=      5-min Rain = 0
KFVS 191355Z 35022G27KT 00/M04 A3022 RMK A01 T00011043  RH  072%=      5-min Rain = 0
KFVS 191400Z 35022G28KT 00/M04 A3022 RMK A01 T00021043  RH  073%=      5-min Rain = 0
KFVS 191405Z 34021G27KT 00/M04 A3023 RMK A01 T00021042  RH  072%=      5-min Rain = 0
KFVS 191410Z 34019G26KT 00/M04 A3023 RMK A01 T00021042  RH  073%=      5-min Rain = 0
KFVS 191415Z 34019G25KT 00/M04 A3024 RMK A01 T00031041  RH  073%=      5-min Rain = 0
KFVS 191420Z 34019G29KT 00/M04 A3024 RMK A01 T00041041  RH  072%=      5-min Rain = 0
KFVS 191425Z 33019G26KT 01/M04 A3025 RMK A01 T00051040  RH  072%=      5-min Rain = 0
KFVS 191430Z 33019KT 01/M04 A3025 RMK A01 T00071040  RH  072%=      5-min Rain = 0
KFVS 191435Z 34020G26KT 01/M04 A3026 RMK A01 T00081039  RH  071%=      5-min Rain = 0
KFVS 191440Z 34021G30KT 01/M04 A3026 RMK A01 T00101038  RH  071%=      5-min Rain = 0
KFVS 191445Z 34020G26KT 01/M04 A3026 RMK A01 T00121038  RH  069%=      5-min Rain = 0
KFVS 191450Z 34018G24KT 01/M04 A3027 RMK A01 T00141037  RH  069%=      5-min Rain = 0
KFVS 191455Z 34019G26KT 02/M04 A3027 RMK A01 T00171036  RH  068%=      5-min Rain = 0
KFVS 191500Z 34021KT 02/M04 A3028 RMK A01 T00181037  RH  067%=      5-min Rain = 0
KFVS 191505Z 34020G26KT 02/M04 A3028 RMK A01 T00201036  RH  067%=      5-min Rain = 0
KFVS 191510Z 34019G26KT 02/M04 A3028 RMK A01 T00221035  RH  067%=      5-min Rain = 0
KFVS 191515Z 34019G24KT 02/M04 A3029 RMK A01 T00241035  RH  066%=      5-min Rain = 0
KFVS 191520Z 34021G29KT 03/M03 A3029 RMK A01 T00251034  RH  066%=      5-min Rain = 0
KFVS 191525Z 35021G27KT 03/M04 A3029 RMK A01 T00251035  RH  065%=      5-min Rain = 0
KFVS 191530Z 34021G27KT 03/M03 A303 RMK A01 T00251034  RH  065%=      5-min Rain = 0
KFVS 191535Z 35020G28KT 03/M03 A303 RMK A01 T00271032  RH  065%=      5-min Rain = 0
KFVS 191540Z 35024G30KT 03/M03 A303 RMK A01 T00271033  RH  065%=      5-min Rain = 0
KFVS 191545Z 35024G30KT 03/M03 A303 RMK A01 T00271034  RH  065%=      5-min Rain = 0
KFVS 191550Z 35023G29KT 03/M03 A303 RMK A01 T00291033  RH  064%=      5-min Rain = 0
KFVS 191555Z 35023G29KT 03/M03 A303 RMK A01 T00291034  RH  063%=      5-min Rain = 0
KFVS 191600Z 35022G28KT 03/M03 A3031 RMK A01 T00311033  RH  063%=      5-min Rain = 0
KFVS 191605Z 35022G30KT 03/M03 A3031 RMK A01 T00331033  RH  062%=      5-min Rain = 0
KFVS 191610Z 35023G28KT 03/M03 A3031 RMK A01 T00341033  RH  062%=      5-min Rain = 0
KFVS 191615Z 35023KT 04/M03 A3031 RMK A01 T00351033  RH  061%=      5-min Rain = 0
KFVS 191620Z 35021G29KT 04/M03 A3031 RMK A01 T00371031  RH  061%=      5-min Rain = 0
KFVS 191625Z 35020G26KT 04/M03 A3031 RMK A01 T00371032  RH  061%=      5-min Rain = 0
KFVS 191630Z 35021G29KT 04/M03 A3032 RMK A01 T00391032  RH  060%=      5-min Rain = 0
KFVS 191635Z 36020G25KT 04/M03 A3032 RMK A01 T00421031  RH  059%=      5-min Rain = 0
KFVS 191640Z 00020KT 04/M03 A3032 RMK A01 T00421032  RH  059%=      5-min Rain = 0
KFVS 191645Z 35020G26KT 04/M03 A3032 RMK A01 T00441032  RH  058%=      5-min Rain = 0
KFVS 191650Z 35019G24KT 05/M03 A3032 RMK A01 T00461031  RH  058%=      5-min Rain = 0
KFVS 191655Z 00018G24KT 05/M03 A3032 RMK A01 T00481030  RH  057%=      5-min Rain = 0
KFVS 191700Z 00018G24KT 05/M03 A3032 RMK A01 T00471032  RH  057%=      5-min Rain = 0
KFVS 191705Z 00019KT 05/M03 A3032 RMK A01 T00461033  RH  057%=      5-min Rain = 0
KFVS 191710Z 36018G23KT 05/M03 A3032 RMK A01 T00461032  RH  057%=      5-min Rain = 0
KFVS 191715Z 36017G22KT 05/M03 A3032 RMK A01 T00501029  RH  057%=      5-min Rain = 0
KFVS 191720Z 36018G25KT 05/M03 A3031 RMK A01 T00511030  RH  056%=      5-min Rain = 0
KFVS 191725Z 35018G24KT 06/M03 A3031 RMK A01 T00561029  RH  055%=      5-min Rain = 0
KFVS 191730Z 36019G25KT 06/M03 A3031 RMK A01 T00571030  RH  054%=      5-min Rain = 0
KFVS 191735Z 36019G25KT 06/M03 A3032 RMK A01 T00591029  RH  054%=      5-min Rain = 0
KFVS 191740Z 36020G25KT 06/M03 A3032 RMK A01 T00591030  RH  053%=      5-min Rain = 0
KFVS 191745Z 35019KT 06/M03 A3032 RMK A01 T00621028  RH  053%=      5-min Rain = 0
KFVS 191750Z 35020G27KT 06/M03 A3031 RMK A01 T00611031  RH  052%=      5-min Rain = 0
KFVS 191755Z 35018G23KT 06/M03 A3031 RMK A01 T00641027  RH  052%=      5-min Rain = 0
KFVS 191800Z 34019G24KT 07/M03 A3031 RMK A01 T00651029  RH  051%=      5-min Rain = 0
KFVS 191805Z 35019G25KT 06/M03 A3031 RMK A01 T00641031  RH  051%=      5-min Rain = 0
KFVS 191810Z 34017G22KT 06/M03 A3031 RMK A01 T00641030  RH  052%=      5-min Rain = 0
KFVS 191815Z 35019KT 07/M03 A3031 RMK A01 T00651029  RH  051%=      5-min Rain = 0
KFVS 191820Z 34017KT 07/M03 A3031 RMK A01 T00671029  RH  051%=      5-min Rain = 0
KFVS 191825Z 35018G24KT 07/M03 A303 RMK A01 T00711028  RH  050%=      5-min Rain = 0
KFVS 191830Z 35016G22KT 07/M03 A303 RMK A01 T00721027  RH  050%=      5-min Rain = 0
KFVS 191835Z 34018G23KT 07/M03 A303 RMK A01 T00721028  RH  049%=      5-min Rain = 0
KFVS 191840Z 35019G25KT 07/M03 A303 RMK A01 T00741029  RH  048%=      5-min Rain = 0
KFVS 191845Z 35019G27KT 08/M03 A303 RMK A01 T00761029  RH  048%=      5-min Rain = 0
KFVS 191850Z 34018G24KT 08/M03 A3029 RMK A01 T00781027  RH  048%=      5-min Rain = 0
KFVS 191855Z 34017G22KT 08/M03 A3029 RMK A01 T00801025  RH  048%=      5-min Rain = 0
KFVS 191900Z 35019G24KT 08/M03 A3028 RMK A01 T00811027  RH  047%=      5-min Rain = 0
KFVS 191905Z 35021KT 08/M03 A3028 RMK A01 T00821029  RH  046%=      5-min Rain = 0
KFVS 191910Z 35020G27KT 08/M03 A3028 RMK A01 T00841029  RH  045%=      5-min Rain = 0
KFVS 191915Z 35019KT 09/M03 A3027 RMK A01 T00871028  RH  045%=      5-min Rain = 0
KFVS 191920Z 35022G27KT 09/M03 A3027 RMK A01 T00871031  RH  044%=      5-min Rain = 0
KFVS 191925Z 35023G28KT 09/M03 A3027 RMK A01 T00881031  RH  043%=      5-min Rain = 0
KFVS 191930Z 35021G26KT 09/M03 A3027 RMK A01 T00891030  RH  043%=      5-min Rain = 0
KFVS 191935Z 35019G26KT 09/M03 A3027 RMK A01 T00931028  RH  043%=      5-min Rain = 0
KFVS 191940Z 34019G26KT 10/M03 A3027 RMK A01 T00951027  RH  042%=      5-min Rain = 0
KFVS 191945Z 34020KT 09/M03 A3027 RMK A01 T00941029  RH  042%=      5-min Rain = 0
KFVS 191950Z 34019G25KT 10/M03 A3027 RMK A01 T00961028  RH  042%=      5-min Rain = 0
KFVS 191955Z 35017G24KT 10/M03 A3027 RMK A01 T00961028  RH  042%=      5-min Rain = 0
KFVS 192000Z 33019G24KT 10/M03 A3027 RMK A01 T00971028  RH  041%=      5-min Rain = 0
KFVS 192005Z 34020KT 10/M03 A3027 RMK A01 T00971029  RH  041%=      5-min Rain = 0
KFVS 192010Z 34015G22KT 10/M03 A3027 RMK A01 T00981027  RH  041%=      5-min Rain = 0
KFVS 192015Z 34018G23KT 10/M03 A3026 RMK A01 T01031026  RH  041%=      5-min Rain = 0
KFVS 192020Z 34019G24KT 10/M03 A3026 RMK A01 T01031029  RH  040%=      5-min Rain = 0
KFVS 192025Z 35020G25KT 11/M03 A3026 RMK A01 T01061028  RH  039%=      5-min Rain = 0
KFVS 192030Z 34019G24KT 10/M03 A3026 RMK A01 T01041029  RH  039%=      5-min Rain = 0
KFVS 192035Z 34017G22KT 10/M03 A3026 RMK A01 T01031030  RH  039%=      5-min Rain = 0
KFVS 192040Z 34017G22KT 11/M03 A3026 RMK A01 T01051028  RH  039%=      5-min Rain = 0
KFVS 192045Z 33017KT 11/M03 A3025 RMK A01 T01071027  RH  039%=      5-min Rain = 0
KFVS 192050Z 34018G23KT 11/M03 A3025 RMK A01 T01091028  RH  039%=      5-min Rain = 0
KFVS 192055Z 34018KT 11/M03 A3025 RMK A01 T01061031  RH  038%=      5-min Rain = 0
KFVS 192100Z 33018KT 11/M03 A3025 RMK A01 T01061029  RH  039%=      5-min Rain = 0
KFVS 192105Z 32018KT 11/M03 A3025 RMK A01 T01091029  RH  038%=      5-min Rain = 0
KFVS 192110Z 33017KT 11/M03 A3025 RMK A01 T01101029  RH  038%=      5-min Rain = 0
KFVS 192115Z 34016G23KT 11/M03 A3025 RMK A01 T01111029  RH  038%=      5-min Rain = 0
KFVS 192120Z 33015G20KT 11/M03 A3025 RMK A01 T01111028  RH  038%=      5-min Rain = 0
KFVS 192125Z 33017G26KT 11/M03 A3025 RMK A01 T01111030  RH  037%=      5-min Rain = 0
KFVS 192130Z 35014G19KT 11/M03 A3025 RMK A01 T01121028  RH  038%=      5-min Rain = 0
KFVS 192135Z 34015KT 11/M03 A3025 RMK A01 T01111029  RH  038%=      5-min Rain = 0
KFVS 192140Z 33014G19KT 11/M03 A3025 RMK A01 T01121029  RH  037%=      5-min Rain = 0
KFVS 192145Z 34013KT 11/M03 A3025 RMK A01 T01131029  RH  037%=      5-min Rain = 0
KFVS 192150Z 35015G20KT 12/M03 A3025 RMK A01 T01151030  RH  036%=      5-min Rain = 0
KFVS 192155Z 35019G24KT 11/M03 A3025 RMK A01 T01141031  RH  036%=      5-min Rain = 0
KFVS 192200Z 35018G23KT 11/M03 A3025 RMK A01 T01141033  RH  036%=      5-min Rain = 0
KFVS 192205Z 35013G18KT 12/M03 A3025 RMK A01 T01161031  RH  036%=      5-min Rain = 0
KFVS 192210Z 34014KT 12/M03 A3025 RMK A01 T01161032  RH  036%=      5-min Rain = 0
KFVS 192215Z 34014G19KT 12/M03 A3025 RMK A01 T01151034  RH  035%=      5-min Rain = 0
KFVS 192220Z 35014G19KT 12/M03 A3025 RMK A01 T01161032  RH  036%=      5-min Rain = 0
KFVS 192225Z 35014G19KT 11/M03 A3025 RMK A01 T01141033  RH  036%=      5-min Rain = 0
KFVS 192230Z 35012G19KT 12/M03 A3025 RMK A01 T01161032  RH  036%=      5-min Rain = 0
KFVS 192235Z 34013G19KT 12/M03 A3025 RMK A01 T01151033  RH  035%=      5-min Rain = 0
KFVS 192240Z 36013KT 11/M03 A3025 RMK A01 T01131034  RH  036%=      5-min Rain = 0
KFVS 192245Z 36014KT 11/M04 A3025 RMK A01 T01121035  RH  036%=      5-min Rain = 0
KFVS 192250Z 35013KT 11/M03 A3025 RMK A01 T01121034  RH  036%=      5-min Rain = 0
KFVS 192255Z 35012KT 11/M04 A3025 RMK A01 T01111035  RH  036%=      5-min Rain = 0
KFVS 192300Z 36012KT 11/M03 A3025 RMK A01 T01111034  RH  036%=      5-min Rain = 0
KFVS 192305Z 00014KT 11/M04 A3025 RMK A01 T01101037  RH  036%=      5-min Rain = 0
KFVS 192310Z 35013KT 11/M04 A3025 RMK A01 T01081036  RH  036%=      5-min Rain = 0
KFVS 192315Z 00013KT 11/M04 A3025 RMK A01 T01081037  RH  036%=      5-min Rain = 0
KFVS 192320Z 36012KT 11/M04 A3025 RMK A01 T01071038  RH  036%=      5-min Rain = 0
KFVS 192325Z 35011KT 11/M04 A3026 RMK A01 T01051037  RH  037%=      5-min Rain = 0
KFVS 192330Z 36010KT 10/M04 A3025 RMK A01 T01041038  RH  037%=      5-min Rain = 0
KFVS 192335Z 00010KT 10/M04 A3025 RMK A01 T01021037  RH  038%=      5-min Rain = 0
KFVS 192340Z 00011KT 10/M04 A3025 RMK A01 T01001039  RH  037%=      5-min Rain = 0
KFVS 192345Z 00010KT 10/M04 A3025 RMK A01 T00991040  RH  038%=      5-min Rain = 0
KFVS 192350Z 00009KT 10/M04 A3025 RMK A01 T00951039  RH  039%=      5-min Rain = 0
KFVS 192355Z 00009KT 09/M04 A3025 RMK A01 T00931040  RH  039%=      5-min Rain = 0
KFVS 200000Z 00008KT 09/M04 A3025 RMK A01 T00901040  RH  040%=      5-min Rain = 0
KFVS 200005Z 01007KT 09/M04 A3025 RMK A01 T00881040  RH  040%=      5-min Rain = 0
KFVS 200010Z 01006KT 08/M04 A3026 RMK A01 T00841040  RH  041%=      5-min Rain = 0
KFVS 200015Z 01007KT 08/M04 A3026 RMK A01 T00821041  RH  042%=      5-min Rain = 0
KFVS 200020Z 01007KT 08/M04 A3026 RMK A01 T00781041  RH  043%=      5-min Rain = 0
KFVS 200025Z 01007KT 08/M04 A3026 RMK A01 T00751041  RH  044%=      5-min Rain = 0
KFVS 200030Z 01006KT 07/M04 A3026 RMK A01 T00701041  RH  045%=      5-min Rain = 0
KFVS 200035Z 01006KT 07/M04 A3026 RMK A01 T00701042  RH  045%=      5-min Rain = 0
KFVS 200040Z 01006KT 07/M04 A3027 RMK A01 T00691043  RH  045%=      5-min Rain = 0
KFVS 200045Z 01006KT 07/M04 A3027 RMK A01 T00661042  RH  046%=      5-min Rain = 0
KFVS 200050Z 02007KT 06/M04 A3027 RMK A01 T00641042  RH  047%=      5-min Rain = 0
KFVS 200055Z 02007KT 06/M04 A3027 RMK A01 T00601042  RH  048%=      5-min Rain = 0
KFVS 200100Z 02007KT 06/M04 A3027 RMK A01 T00561041  RH  050%=      5-min Rain = 0
KFVS 200105Z 03008KT 06/M04 A3027 RMK A01 T00551041  RH  050%=      5-min Rain = 0
KFVS 200110Z 03007KT 05/M04 A3027 RMK A01 T00531041  RH  051%=      5-min Rain = 0
KFVS 200115Z 02007KT 05/M04 A3027 RMK A01 T00531041  RH  051%=      5-min Rain = 0
KFVS 200120Z 02008KT 05/M04 A3027 RMK A01 T00541042  RH  050%=      5-min Rain = 0
KFVS 200125Z 02008KT 05/M04 A3028 RMK A01 T00511041  RH  051%=      5-min Rain = 0
KFVS 200130Z 02008KT 05/M04 A3027 RMK A01 T00501040  RH  052%=      5-min Rain = 0
KFVS 200135Z 02008KT 05/M04 A3028 RMK A01 T00481040  RH  053%=      5-min Rain = 0
KFVS 200140Z 02008KT 05/M04 A3028 RMK A01 T00471041  RH  053%=      5-min Rain = 0
KFVS 200145Z 02008KT 05/M04 A3028 RMK A01 T00491041  RH  052%=      5-min Rain = 0
KFVS 200150Z 03007KT 05/M04 A3028 RMK A01 T00481040  RH  053%=      5-min Rain = 0
KFVS 200155Z 04007KT 04/M04 A3028 RMK A01 T00441041  RH  054%=      5-min Rain = 0
KFVS 200200Z 04008KT 04/M04 A3028 RMK A01 T00411042  RH  055%=      5-min Rain = 0
KFVS 200205Z 04008KT 04/M04 A3028 RMK A01 T00401041  RH  056%=      5-min Rain = 0
KFVS 200210Z 04009KT 04/M04 A3028 RMK A01 T00421040  RH  055%=      5-min Rain = 0
KFVS 200215Z 05009KT 04/M04 A3028 RMK A01 T00441040  RH  055%=      5-min Rain = 0
KFVS 200220Z 06009KT 04/M04 A3027 RMK A01 T00391041  RH  056%=      5-min Rain = 0
KFVS 200225Z 06008KT 04/M04 A3027 RMK A01 T00371040  RH  057%=      5-min Rain = 0
KFVS 200230Z 07007KT 03/M04 A3026 RMK A01 T00331041  RH  059%=      5-min Rain = 0
KFVS 200235Z 07008KT 03/M04 A3026 RMK A01 T00301041  RH  060%=      5-min Rain = 0
KFVS 200240Z 07009KT 03/M04 A3027 RMK A01 T00311040  RH  060%=      5-min Rain = 0
KFVS 200245Z 06009KT 03/M04 A3027 RMK A01 T00341040  RH  059%=      5-min Rain = 0
KFVS 200250Z 06007KT 03/M04 A3027 RMK A01 T00311041  RH  059%=      5-min Rain = 0
KFVS 200255Z 07007KT 03/M04 A3027 RMK A01 T00301040  RH  060%=      5-min Rain = 0
KFVS 200300Z 06007KT 03/M04 A3028 RMK A01 T00291041  RH  060%=      5-min Rain = 0
KFVS 200305Z 06007KT 03/M04 A3028 RMK A01 T00271040  RH  061%=      5-min Rain = 0
KFVS 200310Z 06007KT 03/M04 A3028 RMK A01 T00281040  RH  061%=      5-min Rain = 0
KFVS 200315Z 06008KT 03/M04 A3028 RMK A01 T00261040  RH  062%=      5-min Rain = 0
KFVS 200320Z 06008KT 03/M04 A3029 RMK A01 T00271039  RH  062%=      5-min Rain = 0
KFVS 200325Z 05008KT 02/M04 A3029 RMK A01 T00241040  RH  063%=      5-min Rain = 0
KFVS 200330Z 04007KT 02/M04 A3029 RMK A01 T00191041  RH  065%=      5-min Rain = 0
KFVS 200335Z 04006KT 02/M04 A303 RMK A01 T00161041  RH  066%=      5-min Rain = 0
KFVS 200340Z 05007KT 01/M04 A3029 RMK A01 T00141041  RH  067%=      5-min Rain = 0
KFVS 200345Z 05007KT 01/M04 A3029 RMK A01 T00131041  RH  067%=      5-min Rain = 0
KFVS 200350Z 06007KT 01/M04 A3029 RMK A01 T00141040  RH  068%=      5-min Rain = 0
KFVS 200355Z 06007KT 02/M04 A3029 RMK A01 T00181039  RH  066%=      5-min Rain = 0
KFVS 200400Z 06008KT 02/M04 A3029 RMK A01 T00181040  RH  066%=      5-min Rain = 0
KFVS 200405Z 06008KT 02/M04 A303 RMK A01 T00181040  RH  066%=      5-min Rain = 0
KFVS 200410Z 06007KT 02/M04 A303 RMK A01 T00191040  RH  065%=      5-min Rain = 0
KFVS 200415Z 07007KT 02/M04 A3029 RMK A01 T00161042  RH  066%=      5-min Rain = 0
KFVS 200420Z 08007KT 02/M04 A3028 RMK A01 T00151041  RH  067%=      5-min Rain = 0
KFVS 200425Z 09008KT 02/M04 A3027 RMK A01 T00151042  RH  067%=      5-min Rain = 0
KFVS 200430Z 09007KT 01/M04 A3028 RMK A01 T00131043  RH  067%=      5-min Rain = 0
KFVS 200435Z 08008KT 01/M04 A3028 RMK A01 T00131041  RH  067%=      5-min Rain = 0
KFVS 200440Z 08005KT 02/M04 A3027 RMK A01 T00151041  RH  067%=      5-min Rain = 0
KFVS 200445Z 07005KT 02/M04 A3028 RMK A01 T00151043  RH  066%=      5-min Rain = 0
KFVS 200450Z 04004KT 02/M04 A3028 RMK A01 T00161042  RH  066%=      5-min Rain = 0
KFVS 200455Z 04004KT 02/M04 A3029 RMK A01 T00151042  RH  066%=      5-min Rain = 0
KFVS 200500Z 04006KT 01/M04 A303 RMK A01 T00141042  RH  066%=      5-min Rain = 0
KFVS 200505Z 05005KT 02/M04 A3029 RMK A01 T00151042  RH  066%=      5-min Rain = 0
KFVS 200510Z 07007KT 02/M04 A3029 RMK A01 T00151041  RH  067%=      5-min Rain = 0
KFVS 200515Z 06006KT 02/M04 A3029 RMK A01 T00201040  RH  065%=      5-min Rain = 0
KFVS 200520Z 10005KT 01/M04 A3029 RMK A01 T00121043  RH  067%=      5-min Rain = 0
KFVS 200525Z 09003KT 01/M05 A3029 RMK A01 T00071045  RH  069%=      5-min Rain = 0
KFVS 200530Z 08003KT 01/M04 A303 RMK A01 T00051044  RH  070%=      5-min Rain = 0
KFVS 200535Z 10004KT 01/M04 A303 RMK A01 T00071044  RH  069%=      5-min Rain = 0
KFVS 200540Z 11004KT 01/M04 A303 RMK A01 T00101044  RH  068%=      5-min Rain = 0
KFVS 200545Z 11004KT 01/M05 A303 RMK A01 T00111045  RH  067%=      5-min Rain = 0
KFVS 200550Z 10004KT 01/M05 A303 RMK A01 T00051047  RH  068%=      5-min Rain = 0
KFVS 200555Z 11004KT 00/M05 A303 RMK A01 T00041046  RH  070%=      5-min Rain = 0

Page generated in 0.0093 seconds.